sensor_id;sensor_type;location;lat;lon;timestamp;pressure;altitude;pressure_sealevel;temperature
68342;BMP280;55668;52.310;21.066;2023-07-02T00:06:11;99540.0;;;18.5
68342;BMP280;55668;52.310;21.066;2023-07-02T00:18:08;99540.0;;;18.3
68342;BMP280;55668;52.310;21.066;2023-07-02T00:45:48;99530.0;;;18.1
68342;BMP280;55668;52.310;21.066;2023-07-02T01:03:54;99520.0;;;17.8
68342;BMP280;55668;52.310;21.066;2023-07-02T01:19:44;99510.0;;;17.7
68342;BMP280;55668;52.310;21.066;2023-07-02T02:34:30;99480.0;;;17.8
68342;BMP280;55668;52.310;21.066;2023-07-02T03:06:10;99470.0;;;18.0
68342;BMP280;55668;52.310;21.066;2023-07-02T03:36:32;99470.0;;;18.4
68342;BMP280;55668;52.310;21.066;2023-07-02T04:05:50;99460.0;;;18.8
68342;BMP280;55668;52.310;21.066;2023-07-02T04:21:28;99450.0;;;19.0
68342;BMP280;55668;52.310;21.066;2023-07-02T04:41:02;99450.0;;;19.2
68342;BMP280;55668;52.310;21.066;2023-07-02T05:37:10;99470.0;;;20.0
68342;BMP280;55668;52.310;21.066;2023-07-02T05:59:37;99480.0;;;20.3
68342;BMP280;55668;52.310;21.066;2023-07-02T06:25:43;99490.0;;;20.7
68342;BMP280;55668;52.310;21.066;2023-07-02T07:12:52;99500.0;;;21.7
68342;BMP280;55668;52.310;21.066;2023-07-02T07:27:13;99520.0;;;21.9
68342;BMP280;55668;52.310;21.066;2023-07-02T07:40:09;99540.0;;;20.8
68342;BMP280;55668;52.310;21.066;2023-07-02T07:57:04;99550.0;;;20.5
68342;BMP280;55668;52.310;21.066;2023-07-02T08:11:22;99560.0;;;20.3
68342;BMP280;55668;52.310;21.066;2023-07-02T08:26:14;99560.0;;;20.7
68342;BMP280;55668;52.310;21.066;2023-07-02T09:12:09;99580.0;;;21.3
68342;BMP280;55668;52.310;21.066;2023-07-02T09:32:43;99580.0;;;21.7
68342;BMP280;55668;52.310;21.066;2023-07-02T09:58:46;99580.0;;;22.3
68342;BMP280;55668;52.310;21.066;2023-07-02T10:14:24;99570.0;;;22.5
68342;BMP280;55668;52.310;21.066;2023-07-02T10:33:48;99550.0;;;23.3
68342;BMP280;55668;52.310;21.066;2023-07-02T10:45:15;99540.0;;;23.5
68342;BMP280;55668;52.310;21.066;2023-07-02T11:15:13;99590.0;;;22.1
68342;BMP280;55668;52.310;21.066;2023-07-02T11:30:18;99600.0;;;21.1
68342;BMP280;55668;52.310;21.066;2023-07-02T11:47:30;99600.0;;;21.6
68342;BMP280;55668;52.310;21.066;2023-07-02T12:22:27;99600.0;;;22.2
68342;BMP280;55668;52.310;21.066;2023-07-02T12:31:27;99580.0;;;23.1
68342;BMP280;55668;52.310;21.066;2023-07-02T12:48:34;99590.0;;;23.4
68342;BMP280;55668;52.310;21.066;2023-07-02T13:05:23;99580.0;;;23.5
68342;BMP280;55668;52.310;21.066;2023-07-02T13:17:48;99590.0;;;24.1
68342;BMP280;55668;52.310;21.066;2023-07-02T13:26:27;99590.0;;;24.0
68342;BMP280;55668;52.310;21.066;2023-07-02T13:40:54;99610.0;;;23.9
68342;BMP280;55668;52.310;21.066;2023-07-02T13:56:14;99620.0;;;24.0
68342;BMP280;55668;52.310;21.066;2023-07-02T14:11:03;99610.0;;;23.9
68342;BMP280;55668;52.310;21.066;2023-07-02T14:27:02;99620.0;;;24.1
68342;BMP280;55668;52.310;21.066;2023-07-02T14:42:49;99620.0;;;24.2
68342;BMP280;55668;52.310;21.066;2023-07-02T15:13:56;99630.0;;;24.1
68342;BMP280;55668;52.310;21.066;2023-07-02T15:32:01;99640.0;;;23.7
68342;BMP280;55668;52.310;21.066;2023-07-02T16:04:34;99630.0;;;23.5
68342;BMP280;55668;52.310;21.066;2023-07-02T16:18:36;99630.0;;;23.3
68342;BMP280;55668;52.310;21.066;2023-07-02T16:48:53;99630.0;;;23.2
68342;BMP280;55668;52.310;21.066;2023-07-02T17:00:01;99650.0;;;22.8
68342;BMP280;55668;52.310;21.066;2023-07-02T17:18:00;99660.0;;;22.7
68342;BMP280;55668;52.310;21.066;2023-07-02T18:01:29;99720.0;;;22.5
68342;BMP280;55668;52.310;21.066;2023-07-02T18:17:36;99730.0;;;22.3
68342;BMP280;55668;52.310;21.066;2023-07-02T18:37:07;99750.0;;;21.8
68342;BMP280;55668;52.310;21.066;2023-07-02T18:48:44;99770.0;;;21.3
68342;BMP280;55668;52.310;21.066;2023-07-02T19:05:49;99800.0;;;21.0
68342;BMP280;55668;52.310;21.066;2023-07-02T19:38:45;99870.0;;;20.4
68342;BMP280;55668;52.310;21.066;2023-07-02T19:50:24;99890.0;;;20.0
68342;BMP280;55668;52.310;21.066;2023-07-02T20:08:27;99900.0;;;19.6
68342;BMP280;55668;52.310;21.066;2023-07-02T20:26:55;99920.0;;;19.3
68342;BMP280;55668;52.310;21.066;2023-07-02T20:35:01;99930.0;;;18.9
68342;BMP280;55668;52.310;21.066;2023-07-02T20:51:08;99950.0;;;18.6
68342;BMP280;55668;52.310;21.066;2023-07-02T21:08:17;99960.0;;;18.3
68342;BMP280;55668;52.310;21.066;2023-07-02T21:24:06;99980.0;;;18.1
68342;BMP280;55668;52.310;21.066;2023-07-02T21:53:13;100000.0;;;17.7
68342;BMP280;55668;52.310;21.066;2023-07-02T22:09:23;100010.0;;;17.6
68342;BMP280;55668;52.310;21.066;2023-07-02T22:25:31;100020.0;;;17.3
68342;BMP280;55668;52.310;21.066;2023-07-02T22:45:08;100020.0;;;17.2
68342;BMP280;55668;52.310;21.066;2023-07-02T22:58:18;100030.0;;;17.1
68342;BMP280;55668;52.310;21.066;2023-07-02T23:12:43;100030.0;;;16.9
68342;BMP280;55668;52.310;21.066;2023-07-02T23:27:48;100040.0;;;16.8
68342;BMP280;55668;52.310;21.066;2023-07-02T23:39:22;100040.0;;;16.6
68342;BMP280;55668;52.310;21.066;2023-07-02T23:59:41;100060.0;;;16.4
